Airfield :
LOGIN :

Register | Disclaimer

   EN    FR    IT 

 










Legend :    VFR   Marginal VFR   IFR   Intensive IFR   Very Intensive IFR
Visi :
Ceiling :
>= 8 km
>= 3000ft
5 to 8 km
1000 to 3000 ft
1500m to 5 km
500 to 1000 ft
800 to 1500m
200 to 500 ft
< 800m
< 200 ft
Symbols :   Thunderstorms  Fog  Heavy snow  Heavy precipitations  Wind > 20 kt
SIGMETs :     Misc.  Thunderstorms  Icing  Turbulence  Mountain Waves  Volcanic Ashes







- Airport Elevation : 257 ft
- IATA code : MAN
- Download approach charts


EGCC - Manchester

CURRENT METAR :
  • 240520Z AUTO 28005KT 9999 FEW045 04/01 Q1007 NOSIG

EXPIRED METARs :
  • 240450Z AUTO 29005KT 9999 //////TCU 03/01 Q1006 TEMPO SHRA
  • 240420Z AUTO 24006KT 9999 //////TCU 01/M00 Q1006
  • 240350Z AUTO 23005KT 180V240 9999 NCD 01/00 Q1006
  • 240320Z AUTO 22003KT 9999 NCD 02/01 Q1006 NOSIG
  • 240250Z AUTO VRB01KT 9999 FEW022 SCT030 03/01 Q1005 RERA NOSIG

TAF TAF EGCC
Valid from the 24 at 06:00 until the 25 at 12:00 UTC


240457Z 2406/2512 23005KT 9999 FEW025 SCT040
TEMPO 2406/2419 7000 SHRA
TEMPO 2419/2512 7000 SHRA BKN008CB
PROB30
TEMPO 2422/2509 2000 SHRASN BKN004
BECMG 2509/2512 29010KT
PROB30
TEMPO 2509/2512 30015G25KT
ATIS : +44 161 499 2324
No reported NOTAMs for that airfield.



MET'MAP, your aeronautical weather chart ! - Copyright ORBIFLY December 2007 - Disclaimer

ORBIFLY MET'MAP TEAM :

Programming & Development : Alexandra Zaïnal
Concept & Development : Baudouin d'Aumeries
Co-Development & Prog : Marc-Olivier Méhu
Technical & hardware support : Manuel Goepfert

Contact : metmap@orbifly.com




SOURCES & CREDITS :

   NOAA